Time;durP1;ratioP1;P1;durP2;ratioP2;P2;SDS_P1;SDS_P2;PMS_P1;PMS_P2;Temp;Humidity;BMP_temperature;BMP_pressure;BME280_temperature;BME280_humidity;BME280_pressure;Samples;Min_cycle;Max_cycle;Signal;HPM_P1;HPM_P2
2020/12/07 00:00:20;;;;;;;;;;;;;;;;;;5045957;22;19978;-45
2020/12/07 00:02:45;;;;;;;;;;;;;;;;;;5013717;28;19949;-48
2020/12/07 00:05:10;;;;;;;;;;;;;;;;;;5013338;28;19963;-48
2020/12/07 00:07:35;;;;;;;;;;;;;;;;;;5014186;28;19975;-50
2020/12/07 00:10:02;;;;;;;;;;;;;;;;;;5013147;28;19917;-49
2020/12/07 00:12:27;;;;;;;;;;;;;;;;;;5013888;28;19916;-50
2020/12/07 00:14:52;;;;;;;;;;;;;;;;;;5014436;28;19910;-49
2020/12/07 00:17:17;;;;;;;;;;;;;;;;;;5014164;28;20374;-48
2020/12/07 00:19:42;;;;;;;;;;;;;;;;;;5013929;28;19918;-50
2020/12/07 00:22:08;;;;;;;;;;;;;;;;;;5013450;28;19916;-48
2020/12/07 00:24:33;;;;;;;;;;;;;;;;;;5013926;28;19909;-49
2020/12/07 00:26:58;;;;;;;;;;;;;;;;;;4996402;28;20374;-49
2020/12/07 00:29:23;;;;;;;;;;;;;;;;;;5013817;28;19956;-50
2020/12/07 00:31:48;;;;;;;;;;;;;;;;;;5013928;28;19932;-48
2020/12/07 00:34:14;;;;;;;;;;;;;;;;;;5012790;28;20055;-51
2020/12/07 00:36:39;;;;;;;;;;;;;;;;;;5013891;28;20007;-48
2020/12/07 00:39:04;;;;;;;;;;;;;;;;;;5013656;28;19914;-48
2020/12/07 00:41:29;;;;;;;;;;;;;;;;;;5013578;28;19916;-49
2020/12/07 00:43:54;;;;;;;;;;;;;;;;;;5013158;28;19928;-48
2020/12/07 00:46:19;;;;;;;;;;;;;;;;;;5013644;28;20369;-48
2020/12/07 00:48:45;;;;;;;;;;;;;;;;;;5013723;28;20430;-48
2020/12/07 00:51:10;;;;;;;;;;;;;;;;;;5013619;28;19956;-52
2020/12/07 00:53:35;;;;;;;;;;;;;;;;;;5012736;28;19912;-48
2020/12/07 00:56:00;;;;;;;;;;;;;;;;;;4995867;28;19910;-51
2020/12/07 00:58:25;;;;;;;;;;;;;;;;;;5012510;28;20275;-48
2020/12/07 01:00:50;;;;;;;;;;;;;;;;;;5013193;28;20417;-50
2020/12/07 01:03:15;;;;;;;;;;;;;;;;;;5012631;28;19956;-47
2020/12/07 01:05:40;;;;;;;;;;;;;;;;;;4995635;28;19945;-50
2020/12/07 01:08:05;;;;;;;;;;;;;;;;;;5012153;28;19959;-48
2020/12/07 01:10:30;;;;;;;;;;;;;;;;;;5013178;28;19953;-50
2020/12/07 01:12:56;;;;;;;;;;;;;;;;;;5012456;28;19976;-48
2020/12/07 01:15:21;;;;;;;;;;;;;;;;;;5013111;28;20302;-50
2020/12/07 01:17:46;;;;;;;;;;;;;;;;;;5013013;28;20434;-48
2020/12/07 01:20:11;;;;;;;;;;;;;;;;;;5013008;28;20004;-49
2020/12/07 01:22:36;;;;;;;;;;;;;;;;;;5012326;28;19916;-48
2020/12/07 01:25:01;;;;;;;;;;;;;;;;;;5012895;28;20433;-50
2020/12/07 01:27:26;;;;;;;;;;;;;;;;;;5012841;28;20386;-48
2020/12/07 01:29:52;;;;;;;;;;;;;;;;;;5012905;28;19910;-48
2020/12/07 01:32:17;;;;;;;;;;;;;;;;;;5012185;28;19916;-52
2020/12/07 01:34:42;;;;;;;;;;;;;;;;;;5012845;28;20371;-49
2020/12/07 01:37:07;;;;;;;;;;;;;;;;;;5012802;28;19956;-51
2020/12/07 01:39:32;;;;;;;;;;;;;;;;;;5012924;28;19913;-48
2020/12/07 01:41:57;;;;;;;;;;;;;;;;;;5012116;28;19910;-48
2020/12/07 01:44:22;;;;;;;;;;;;;;;;;;5012596;28;19959;-48
2020/12/07 01:46:47;;;;;;;;;;;;;;;;;;5012611;28;20375;-50
2020/12/07 01:49:12;;;;;;;;;;;;;;;;;;4994952;28;19906;-48
2020/12/07 01:51:38;;;;;;;;;;;;;;;;;;5012478;28;19937;-49
2020/12/07 01:54:03;;;;;;;;;;;;;;;;;;5011849;28;20291;-47
2020/12/07 01:56:28;;;;;;;;;;;;;;;;;;5012576;28;20279;-48
2020/12/07 01:58:53;;;;;;;;;;;;;;;;;;5012576;28;20395;-46
2020/12/07 02:01:18;;;;;;;;;;;;;;;;;;5012213;28;20272;-49
2020/12/07 02:03:43;;;;;;;;;;;;;;;;;;5011672;28;20286;-49
2020/12/07 02:06:08;;;;;;;;;;;;;;;;;;5012367;28;20297;-48
2020/12/07 02:08:33;;;;;;;;;;;;;;;;;;5011317;28;19910;-48
2020/12/07 02:10:58;;;;;;;;;;;;;;;;;;5012061;28;19914;-48
2020/12/07 02:13:23;;;;;;;;;;;;;;;;;;5011581;28;19910;-48
2020/12/07 02:15:49;;;;;;;;;;;;;;;;;;4994671;28;19917;-49
2020/12/07 02:18:14;;;;;;;;;;;;;;;;;;5012257;28;19913;-48
2020/12/07 02:20:39;;;;;;;;;;;;;;;;;;5012282;28;19936;-48
2020/12/07 02:23:04;;;;;;;;;;;;;;;;;;5012039;28;19909;-52
2020/12/07 02:25:29;;;;;;;;;;;;;;;;;;5012062;28;19914;-49
2020/12/07 02:27:54;;;;;;;;;;;;;;;;;;5012219;28;19909;-51
2020/12/07 02:30:19;;;;;;;;;;;;;;;;;;5012255;28;19909;-49
2020/12/07 02:32:44;;;;;;;;;;;;;;;;;;5011516;28;20348;-49
2020/12/07 02:35:10;;;;;;;;;;;;;;;;;;5012181;28;20321;-48
2020/12/07 02:37:35;;;;;;;;;;;;;;;;;;5012072;28;20398;-49
2020/12/07 02:40:00;;;;;;;;;;;;;;;;;;5011866;28;19956;-52
2020/12/07 02:42:26;;;;;;;;;;;;;;;;;;4993805;28;19909;-48
2020/12/07 02:44:51;;;;;;;;;;;;;;;;;;5012041;28;19914;-51
2020/12/07 02:47:16;;;;;;;;;;;;;;;;;;5011982;28;19916;-48
2020/12/07 02:49:41;;;;;;;;;;;;;;;;;;5011903;28;19909;-50
2020/12/07 02:52:06;;;;;;;;;;;;;;;;;;5011399;28;19910;-49
2020/12/07 02:54:31;;;;;;;;;;;;;;;;;;5011867;28;19913;-50
2020/12/07 02:56:56;;;;;;;;;;;;;;;;;;5012009;28;20001;-48
2020/12/07 02:59:21;;;;;;;;;;;;;;;;;;5011647;28;20027;-49
2020/12/07 03:01:47;;;;;;;;;;;;;;;;;;5011872;28;20461;-47
2020/12/07 03:04:12;;;;;;;;;;;;;;;;;;5011221;28;19964;-48
2020/12/07 03:06:37;;;;;;;;;;;;;;;;;;5011855;28;19909;-49
2020/12/07 03:09:03;;;;;;;;;;;;;;;;;;5010665;28;19910;-48
2020/12/07 03:11:28;;;;;;;;;;;;;;;;;;5011696;28;20332;-49
2020/12/07 03:13:53;;;;;;;;;;;;;;;;;;5011070;28;19909;-47
2020/12/07 03:16:18;;;;;;;;;;;;;;;;;;5011821;28;19924;-49
2020/12/07 03:18:43;;;;;;;;;;;;;;;;;;5011712;28;19918;-49
2020/12/07 03:21:08;;;;;;;;;;;;;;;;;;5011692;28;20385;-50
2020/12/07 03:23:33;;;;;;;;;;;;;;;;;;5014094;28;19985;-49
2020/12/07 03:25:58;;;;;;;;;;;;;;;;;;5015431;28;19910;-50
2020/12/07 03:28:23;;;;;;;;;;;;;;;;;;5015214;28;20113;-49
2020/12/07 03:30:49;;;;;;;;;;;;;;;;;;4997504;28;19916;-49
2020/12/07 03:33:14;;;;;;;;;;;;;;;;;;5014318;28;19916;-53
2020/12/07 03:35:39;;;;;;;;;;;;;;;;;;5014924;28;19918;-47
2020/12/07 03:38:04;;;;;;;;;;;;;;;;;;5014838;28;19913;-52
2020/12/07 03:40:29;;;;;;;;;;;;;;;;;;5014937;28;19916;-48
2020/12/07 03:42:54;;;;;;;;;;;;;;;;;;5014167;28;19906;-50
2020/12/07 03:45:19;;;;;;;;;;;;;;;;;;5014640;28;19965;-49
2020/12/07 03:47:44;;;;;;;;;;;;;;;;;;5013660;28;19928;-51
2020/12/07 03:50:09;;;;;;;;;;;;;;;;;;5013945;28;19910;-47
2020/12/07 03:52:35;;;;;;;;;;;;;;;;;;5013988;28;19910;-50
2020/12/07 03:55:00;;;;;;;;;;;;;;;;;;5014664;28;19943;-49
2020/12/07 03:57:25;;;;;;;;;;;;;;;;;;5014543;28;19910;-49
2020/12/07 03:59:50;;;;;;;;;;;;;;;;;;5014277;28;19924;-47
2020/12/07 04:02:15;;;;;;;;;;;;;;;;;;5013884;28;20347;-47
2020/12/07 04:04:47;;;;;;;;;;;;;;;;;;5014510;28;20401;-48
2020/12/07 04:07:12;;;;;;;;;;;;;;;;;;5014872;28;20428;-47
2020/12/07 04:09:37;;;;;;;;;;;;;;;;;;5012601;28;20375;-50
2020/12/07 04:12:02;;;;;;;;;;;;;;;;;;5013889;28;19941;-48
2020/12/07 04:14:27;;;;;;;;;;;;;;;;;;5014226;28;19916;-49
2020/12/07 04:16:53;;;;;;;;;;;;;;;;;;5014263;28;19909;-46
2020/12/07 04:19:18;;;;;;;;;;;;;;;;;;5014007;28;20370;-48
2020/12/07 04:21:43;;;;;;;;;;;;;;;;;;5014166;28;20546;-48
2020/12/07 04:24:08;;;;;;;;;;;;;;;;;;5013378;28;20385;-49
2020/12/07 04:26:33;;;;;;;;;;;;;;;;;;5014048;28;20457;-52
2020/12/07 04:28:59;;;;;;;;;;;;;;;;;;5013982;28;20274;-48
2020/12/07 04:31:24;;;;;;;;;;;;;;;;;;5013878;28;20427;-48
2020/12/07 04:33:49;;;;;;;;;;;;;;;;;;5013058;28;20457;-49
2020/12/07 04:36:14;;;;;;;;;;;;;;;;;;4996296;28;20009;-50
2020/12/07 04:38:40;;;;;;;;;;;;;;;;;;5013719;28;20020;-50
2020/12/07 04:41:05;;;;;;;;;;;;;;;;;;5013679;28;19992;-49
2020/12/07 04:43:30;;;;;;;;;;;;;;;;;;5012825;28;19909;-50
2020/12/07 04:45:55;;;;;;;;;;;;;;;;;;5013803;28;19917;-47
2020/12/07 04:48:20;;;;;;;;;;;;;;;;;;5013687;28;19907;-49
2020/12/07 04:50:45;;;;;;;;;;;;;;;;;;5013563;28;19913;-48
2020/12/07 04:53:10;;;;;;;;;;;;;;;;;;5012811;28;20056;-49
2020/12/07 04:55:35;;;;;;;;;;;;;;;;;;5011249;28;20067;-49
2020/12/07 04:58:01;;;;;;;;;;;;;;;;;;5013176;28;20457;-48
2020/12/07 05:00:26;;;;;;;;;;;;;;;;;;5013089;28;19924;-48
2020/12/07 05:02:51;;;;;;;;;;;;;;;;;;5012710;28;19916;-48
2020/12/07 05:05:16;;;;;;;;;;;;;;;;;;5013072;28;19909;-49
2020/12/07 05:07:41;;;;;;;;;;;;;;;;;;5013127;28;20375;-49
2020/12/07 05:10:12;;;;;;;;;;;;;;;;;;5011372;28;19940;-51
2020/12/07 05:12:42;;;;;;;;;;;;;;;;;;5012411;28;19910;-49
2020/12/07 05:15:15;;;;;;;;;;;;;;;;;;5013070;28;19909;-49
2020/12/07 05:17:40;;;;;;;;;;;;;;;;;;5013105;28;19955;-48
2020/12/07 05:20:05;;;;;;;;;;;;;;;;;;5012808;28;19913;-48
2020/12/07 05:22:30;;;;;;;;;;;;;;;;;;5012196;28;19913;-48
2020/12/07 05:24:55;;;;;;;;;;;;;;;;;;5013007;28;20076;-48
2020/12/07 05:27:20;;;;;;;;;;;;;;;;;;5012757;28;19914;-52
2020/12/07 05:30:06;;;;;;;;;;;;;;;;;;5012821;28;19910;-48
2020/12/07 05:32:31;;;;;;;;;;;;;;;;;;5012142;28;19921;-50
2020/12/07 05:34:56;;;;;;;;;;;;;;;;;;5012477;28;19910;-48
2020/12/07 05:37:21;;;;;;;;;;;;;;;;;;5012651;28;19910;-49
2020/12/07 05:39:46;;;;;;;;;;;;;;;;;;5012662;28;19917;-48
2020/12/07 05:42:12;;;;;;;;;;;;;;;;;;5012031;28;20371;-49
2020/12/07 05:44:37;;;;;;;;;;;;;;;;;;5012277;28;19996;-49
2020/12/07 05:47:02;;;;;;;;;;;;;;;;;;5012629;28;19909;-50
2020/12/07 05:49:27;;;;;;;;;;;;;;;;;;5012355;28;20057;-52
2020/12/07 05:51:52;;;;;;;;;;;;;;;;;;5012401;28;20012;-48
2020/12/07 05:54:17;;;;;;;;;;;;;;;;;;5012018;28;19988;-50
2020/12/07 05:56:42;;;;;;;;;;;;;;;;;;5012466;28;20044;-49
2020/12/07 05:59:07;;;;;;;;;;;;;;;;;;5017509;28;20000;-53
2020/12/07 06:01:32;;;;;;;;;;;;;;;;;;5059340;23;20365;-45
2020/12/07 06:03:58;;;;;;;;;;;;;;;;;;4991794;28;20332;-46
2020/12/07 06:06:23;;;;;;;;;;;;;;;;;;4992113;28;20359;-45
2020/12/07 06:08:48;;;;;;;;;;;;;;;;;;4992402;28;20435;-45
2020/12/07 06:11:13;;;;;;;;;;;;;;;;;;4991403;28;20008;-45
2020/12/07 06:13:38;;;;;;;;;;;;;;;;;;4989560;28;19916;-47
2020/12/07 06:16:03;;;;;;;;;;;;;;;;;;4991755;28;19910;-45
2020/12/07 06:18:28;;;;;;;;;;;;;;;;;;4992139;28;19917;-47
2020/12/07 06:20:53;;;;;;;;;;;;;;;;;;4992660;28;20052;-47
2020/12/07 06:23:19;;;;;;;;;;;;;;;;;;4991953;28;19917;-44
2020/12/07 06:25:44;;;;;;;;;;;;;;;;;;4992242;28;19910;-47
2020/12/07 06:28:09;;;;;;;;;;;;;;;;;;4992382;28;19965;-46
2020/12/07 06:30:34;;;;;;;;;;;;;;;;;;4991995;28;19910;-46
2020/12/07 06:32:59;;;;;;;;;;;;;;;;;;4987557;28;19960;-46
2020/12/07 06:35:24;;;;;;;;;;;;;;;;;;4986197;28;20008;-42
2020/12/07 06:37:49;;;;;;;;;;;;;;;;;;4989978;28;19918;-45
2020/12/07 06:40:14;;;;;;;;;;;;;;;;;;4991501;28;19916;-46
2020/12/07 06:42:40;;;;;;;;;;;;;;;;;;4991428;28;19957;-46
2020/12/07 06:45:05;;;;;;;;;;;;;;;;;;4991208;28;19945;-47
2020/12/07 06:47:30;;;;;;;;;;;;;;;;;;4990951;28;20072;-47
2020/12/07 06:49:59;;;;;;;;;;;;;;;;;;4991824;28;19909;-46
2020/12/07 06:52:26;;;;;;;;;;;;;;;;;;4991186;28;19909;-47
2020/12/07 06:55:09;;;;;;;;;;;;;;;;;;4972326;28;19985;-46
2020/12/07 06:57:34;;;;;;;;;;;;;;;;;;4973790;28;19910;-45
2020/12/07 07:00:00;;;;;;;;;;;;;;;;;;4975114;28;19921;-45
2020/12/07 07:02:25;;;;;;;;;;;;;;;;;;4975295;28;20414;-46
2020/12/07 07:04:50;;;;;;;;;;;;;;;;;;4975894;28;19910;-48
2020/12/07 07:07:15;;;;;;;;;;;;;;;;;;4975099;28;19914;-44
2020/12/07 07:09:41;;;;;;;;;;;;;;;;;;4976909;28;19914;-46
2020/12/07 07:12:06;;;;;;;;;;;;;;;;;;4994755;28;19917;-46
2020/12/07 07:14:31;;;;;;;;;;;;;;;;;;4994705;28;20029;-47
2020/12/07 07:16:56;;;;;;;;;;;;;;;;;;4993497;28;20004;-45
2020/12/07 07:19:21;;;;;;;;;;;;;;;;;;4993663;28;20009;-45
2020/12/07 07:21:46;;;;;;;;;;;;;;;;;;4994572;28;20008;-44
2020/12/07 07:24:11;;;;;;;;;;;;;;;;;;4994660;28;20004;-45
2020/12/07 07:26:40;;;;;;;;;;;;;;;;;;4994664;28;19996;-46
2020/12/07 07:29:05;;;;;;;;;;;;;;;;;;4993497;28;20044;-46
2020/12/07 07:31:30;;;;;;;;;;;;;;;;;;4994826;28;20012;-46
2020/12/07 07:33:55;;;;;;;;;;;;;;;;;;4994593;28;20012;-46
2020/12/07 07:36:20;;;;;;;;;;;;;;;;;;4994127;28;19961;-46
2020/12/07 07:38:45;;;;;;;;;;;;;;;;;;4994343;28;19972;-49
2020/12/07 07:41:10;;;;;;;;;;;;;;;;;;4994391;28;19956;-45
2020/12/07 07:43:36;;;;;;;;;;;;;;;;;;4993512;28;19910;-46
2020/12/07 07:46:02;;;;;;;;;;;;;;;;;;4994252;28;19913;-46
2020/12/07 07:48:45;;;;;;;;;;;;;;;;;;4993292;28;19936;-47
2020/12/07 08:13:08;;;;;;;;;;;;;;;;;;4992806;28;19917;-47
2020/12/07 08:15:49;;;;;;;;;;;;;;;;;;4993906;28;19964;-48
2020/12/07 08:18:18;;;;;;;;;;;;;;;;;;4993762;28;19914;-46
2020/12/07 08:20:43;;;;;;;;;;;;;;;;;;4993138;28;19917;-45
2020/12/07 08:23:09;;;;;;;;;;;;;;;;;;4993353;28;19910;-46
2020/12/07 08:25:34;;;;;;;;;;;;;;;;;;4993533;28;19932;-45
2020/12/07 08:28:00;;;;;;;;;;;;;;;;;;4992835;28;19914;-47
2020/12/07 08:30:25;;;;;;;;;;;;;;;;;;4993658;28;20268;-47
2020/12/07 08:32:50;;;;;;;;;;;;;;;;;;4992036;28;19993;-48
2020/12/07 08:35:15;;;;;;;;;;;;;;;;;;4993087;28;20048;-45
2020/12/07 08:37:40;;;;;;;;;;;;;;;;;;4993458;28;20355;-46
2020/12/07 08:40:05;;;;;;;;;;;;;;;;;;4990184;28;20340;-46
2020/12/07 08:42:30;;;;;;;;;;;;;;;;;;4992476;28;20449;-46
2020/12/07 08:44:55;;;;;;;;;;;;;;;;;;4992546;28;20070;-46
2020/12/07 08:47:20;;;;;;;;;;;;;;;;;;4992770;28;20054;-47
2020/12/07 08:49:49;;;;;;;;;;;;;;;;;;4993521;28;19949;-45
2020/12/07 08:52:14;;;;;;;;;;;;;;;;;;4992815;28;19910;-48
2020/12/07 08:54:39;;;;;;;;;;;;;;;;;;4992738;28;19914;-46
2020/12/07 08:57:04;;;;;;;;;;;;;;;;;;4992999;28;19917;-47
2020/12/07 08:59:29;;;;;;;;;;;;;;;;;;4993267;28;19937;-45
2020/12/07 09:01:55;;;;;;;;;;;;;;;;;;4992695;28;19917;-46
2020/12/07 09:04:20;;;;;;;;;;;;;;;;;;4992368;28;20283;-46
2020/12/07 09:06:49;;;;;;;;;;;;;;;;;;4993333;28;19910;-48
2020/12/07 09:09:14;;;;;;;;;;;;;;;;;;4992873;28;19910;-46
2020/12/07 09:11:39;;;;;;;;;;;;;;;;;;4993334;28;19960;-45
2020/12/07 09:14:08;;;;;;;;;;;;;;;;;;4992142;28;19949;-45
2020/12/07 09:16:33;;;;;;;;;;;;;;;;;;4993214;28;19917;-47
2020/12/07 09:18:58;;;;;;;;;;;;;;;;;;4992150;28;20299;-46
2020/12/07 09:21:23;;;;;;;;;;;;;;;;;;4992323;28;19910;-45
2020/12/07 09:23:48;;;;;;;;;;;;;;;;;;4992076;28;19910;-46
2020/12/07 09:26:13;;;;;;;;;;;;;;;;;;4992990;28;19913;-45
2020/12/07 09:28:38;;;;;;;;;;;;;;;;;;4992717;28;20420;-46
2020/12/07 09:31:03;;;;;;;;;;;;;;;;;;4992164;28;19917;-46
2020/12/07 09:33:28;;;;;;;;;;;;;;;;;;4992741;28;19918;-47
2020/12/07 09:35:54;;;;;;;;;;;;;;;;;;4993003;28;19964;-46
2020/12/07 09:38:19;;;;;;;;;;;;;;;;;;4992322;28;19979;-47
2020/12/07 09:40:44;;;;;;;;;;;;;;;;;;4992112;28;19909;-45
2020/12/07 09:43:09;;;;;;;;;;;;;;;;;;4992218;28;20068;-47
2020/12/07 09:45:34;;;;;;;;;;;;;;;;;;4992205;28;19953;-46
2020/12/07 09:47:59;;;;;;;;;;;;;;;;;;4992253;28;20496;-46
2020/12/07 09:50:24;;;;;;;;;;;;;;;;;;4992276;28;19917;-46
2020/12/07 09:52:49;;;;;;;;;;;;;;;;;;4992184;28;19910;-46
2020/12/07 09:55:14;;;;;;;;;;;;;;;;;;4991876;28;19910;-47
2020/12/07 09:57:40;;;;;;;;;;;;;;;;;;4992322;28;19932;-45
2020/12/07 10:00:05;;;;;;;;;;;;;;;;;;4992220;28;20333;-46
2020/12/07 10:02:30;;;;;;;;;;;;;;;;;;4991273;28;20401;-44
2020/12/07 10:04:55;;;;;;;;;;;;;;;;;;4992375;28;20001;-47
2020/12/07 10:07:20;;;;;;;;;;;;;;;;;;4992019;28;20005;-45
2020/12/07 10:09:45;;;;;;;;;;;;;;;;;;4991864;28;19909;-46
2020/12/07 10:12:10;;;;;;;;;;;;;;;;;;4991848;28;20020;-46
2020/12/07 10:14:36;;;;;;;;;;;;;;;;;;4991916;28;19992;-46
2020/12/07 10:17:01;;;;;;;;;;;;;;;;;;4991574;28;20462;-45
2020/12/07 10:19:26;;;;;;;;;;;;;;;;;;4991806;28;19922;-46
2020/12/07 10:21:51;;;;;;;;;;;;;;;;;;4991794;28;20404;-45
2020/12/07 10:24:16;;;;;;;;;;;;;;;;;;4991243;28;20298;-47
2020/12/07 10:26:41;;;;;;;;;;;;;;;;;;4991695;28;19910;-46
2020/12/07 10:29:06;;;;;;;;;;;;;;;;;;4991877;28;19981;-45
2020/12/07 10:31:31;;;;;;;;;;;;;;;;;;4993392;28;19995;-46
2020/12/07 10:33:57;;;;;;;;;;;;;;;;;;4995376;28;20011;-45
2020/12/07 10:36:24;;;;;;;;;;;;;;;;;;4995846;28;19909;-47
2020/12/07 10:38:49;;;;;;;;;;;;;;;;;;4995441;28;19914;-46
2020/12/07 10:41:14;;;;;;;;;;;;;;;;;;4995768;28;19917;-47
2020/12/07 10:43:39;;;;;;;;;;;;;;;;;;4995163;28;19914;-46
2020/12/07 10:46:04;;;;;;;;;;;;;;;;;;4995556;28;19910;-47
2020/12/07 10:48:29;;;;;;;;;;;;;;;;;;4995386;28;20032;-45
2020/12/07 10:50:56;;;;;;;;;;;;;;;;;;4995281;28;19937;-47
2020/12/07 10:53:21;;;;;;;;;;;;;;;;;;4995110;28;19918;-46
2020/12/07 10:55:46;;;;;;;;;;;;;;;;;;4995463;28;20197;-45
2020/12/07 10:58:11;;;;;;;;;;;;;;;;;;4994972;28;19921;-45
2020/12/07 11:00:39;;;;;;;;;;;;;;;;;;4994845;28;19989;-46
2020/12/07 11:03:04;;;;;;;;;;;;;;;;;;4995116;28;19910;-47
2020/12/07 11:05:29;;;;;;;;;;;;;;;;;;4995165;28;20418;-46
2020/12/07 11:07:55;;;;;;;;;;;;;;;;;;4993760;28;19954;-47
2020/12/07 11:10:20;;;;;;;;;;;;;;;;;;4994985;28;20457;-50
2020/12/07 11:12:51;;;;;;;;;;;;;;;;;;4978479;28;19917;-49
2020/12/07 11:15:18;;;;;;;;;;;;;;;;;;4975793;28;19914;-46
2020/12/07 11:17:43;;;;;;;;;;;;;;;;;;4983295;28;19910;-49
2020/12/07 11:20:08;;;;;;;;;;;;;;;;;;4994484;28;19973;-49
2020/12/07 11:22:33;;;;;;;;;;;;;;;;;;4994872;28;19909;-47
2020/12/07 11:24:58;;;;;;;;;;;;;;;;;;4994785;28;19910;-49
2020/12/07 11:27:23;;;;;;;;;;;;;;;;;;4994618;28;19957;-49
2020/12/07 11:29:49;;;;;;;;;;;;;;;;;;4994123;28;19909;-46
2020/12/07 11:32:14;;;;;;;;;;;;;;;;;;4994458;28;19910;-47
2020/12/07 11:34:39;;;;;;;;;;;;;;;;;;4994348;28;20342;-48
2020/12/07 11:37:04;;;;;;;;;;;;;;;;;;4994294;28;19945;-47
2020/12/07 11:44:31;;;;;;;;;;;;;;;;;;4994364;28;20008;-48
2020/12/07 11:46:59;;;;;;;;;;;;;;;;;;4994657;28;20014;-46
2020/12/07 11:49:25;;;;;;;;;;;;;;;;;;4994261;28;20293;-51
2020/12/07 11:51:50;;;;;;;;;;;;;;;;;;4994602;28;20357;-47
2020/12/07 11:54:15;;;;;;;;;;;;;;;;;;5012864;28;20009;-45
2020/12/07 11:56:40;;;;;;;;;;;;;;;;;;5013440;28;19909;-47
2020/12/07 11:59:05;;;;;;;;;;;;;;;;;;5013108;28;19917;-48
2020/12/07 12:01:33;;;;;;;;;;;;;;;;;;5071651;23;19979;-51
2020/12/07 12:03:58;;;;;;;;;;;;;;;;;;5032105;28;19909;-50
2020/12/07 12:06:24;;;;;;;;;;;;;;;;;;5033165;28;20012;-51
2020/12/07 12:08:49;;;;;;;;;;;;;;;;;;5033411;28;20043;-51
2020/12/07 12:11:14;;;;;;;;;;;;;;;;;;5033260;28;20325;-51
2020/12/07 12:13:39;;;;;;;;;;;;;;;;;;5030548;28;20011;-51
2020/12/07 12:16:04;;;;;;;;;;;;;;;;;;5032978;28;19909;-51
2020/12/07 12:18:30;;;;;;;;;;;;;;;;;;5033327;28;19920;-50
2020/12/07 12:20:55;;;;;;;;;;;;;;;;;;5033041;28;19909;-51
2020/12/07 12:23:20;;;;;;;;;;;;;;;;;;5032159;28;19909;-52
2020/12/07 12:25:45;;;;;;;;;;;;;;;;;;5032980;28;19917;-51
2020/12/07 12:28:10;;;;;;;;;;;;;;;;;;5033086;28;19963;-51
2020/12/07 12:30:35;;;;;;;;;;;;;;;;;;5032845;28;20433;-50
2020/12/07 12:33:01;;;;;;;;;;;;;;;;;;5032098;28;20001;-51
2020/12/07 12:35:27;;;;;;;;;;;;;;;;;;5032919;28;20000;-51
2020/12/07 12:37:52;;;;;;;;;;;;;;;;;;5032801;28;19909;-51
2020/12/07 12:40:17;;;;;;;;;;;;;;;;;;5032479;28;20320;-51
2020/12/07 12:42:42;;;;;;;;;;;;;;;;;;5014052;28;19931;-51
2020/12/07 12:45:07;;;;;;;;;;;;;;;;;;5032879;28;19916;-51
2020/12/07 12:47:32;;;;;;;;;;;;;;;;;;5032559;28;19909;-50
2020/12/07 12:49:57;;;;;;;;;;;;;;;;;;5032352;28;19918;-50
2020/12/07 12:52:22;;;;;;;;;;;;;;;;;;5031520;28;19916;-51
2020/12/07 12:54:47;;;;;;;;;;;;;;;;;;5032838;28;19910;-51
2020/12/07 12:57:12;;;;;;;;;;;;;;;;;;5014617;28;20093;-51
2020/12/07 12:59:38;;;;;;;;;;;;;;;;;;5032111;28;19913;-51
2020/12/07 13:02:03;;;;;;;;;;;;;;;;;;5013892;28;19917;-52
2020/12/07 13:04:28;;;;;;;;;;;;;;;;;;5032353;28;19909;-50
2020/12/07 13:06:53;;;;;;;;;;;;;;;;;;5032051;28;19919;-52
2020/12/07 13:09:18;;;;;;;;;;;;;;;;;;5032193;28;20141;-51
2020/12/07 13:11:47;;;;;;;;;;;;;;;;;;5032183;28;20390;-52
2020/12/07 13:14:12;;;;;;;;;;;;;;;;;;5029670;28;20317;-50
2020/12/07 13:16:51;;;;;;;;;;;;;;;;;;5031948;28;20298;-51
2020/12/07 13:19:16;;;;;;;;;;;;;;;;;;5032029;28;20337;-51
2020/12/07 13:21:44;;;;;;;;;;;;;;;;;;5014243;28;19948;-50
2020/12/07 13:24:23;;;;;;;;;;;;;;;;;;5031365;28;19916;-51
2020/12/07 13:29:28;;;;;;;;;;;;;;;;;;5031838;28;19944;-51
2020/12/07 13:31:53;;;;;;;;;;;;;;;;;;5031303;28;19920;-51
2020/12/07 13:34:18;;;;;;;;;;;;;;;;;;5031151;28;19909;-50
2020/12/07 13:36:44;;;;;;;;;;;;;;;;;;5031816;28;19935;-52
2020/12/07 13:39:09;;;;;;;;;;;;;;;;;;5031708;28;19967;-51
2020/12/07 13:41:34;;;;;;;;;;;;;;;;;;5031363;28;19913;-51
2020/12/07 13:43:59;;;;;;;;;;;;;;;;;;5027942;28;19940;-51
2020/12/07 13:46:24;;;;;;;;;;;;;;;;;;5012199;28;19910;-51
2020/12/07 13:48:50;;;;;;;;;;;;;;;;;;5011710;28;20285;-50
2020/12/07 13:51:19;;;;;;;;;;;;;;;;;;5011909;28;19910;-50
2020/12/07 13:53:44;;;;;;;;;;;;;;;;;;4993751;28;20301;-51
2020/12/07 13:56:09;;;;;;;;;;;;;;;;;;5011674;28;19910;-50
2020/12/07 13:58:34;;;;;;;;;;;;;;;;;;5011516;28;19922;-52
2020/12/07 14:01:00;;;;;;;;;;;;;;;;;;5011421;28;19964;-51
2020/12/07 14:03:30;;;;;;;;;;;;;;;;;;5011383;28;20433;-50
2020/12/07 14:05:55;;;;;;;;;;;;;;;;;;5011249;28;20337;-50
2020/12/07 14:08:20;;;;;;;;;;;;;;;;;;5011357;28;20348;-51
2020/12/07 14:10:46;;;;;;;;;;;;;;;;;;5011448;28;20302;-50
2020/12/07 14:13:11;;;;;;;;;;;;;;;;;;4991563;28;20337;-51
2020/12/07 14:15:36;;;;;;;;;;;;;;;;;;5011229;28;20367;-51
2020/12/07 14:18:10;;;;;;;;;;;;;;;;;;5011280;28;20394;-51
2020/12/07 14:20:44;;;;;;;;;;;;;;;;;;5011330;28;19914;-51
2020/12/07 14:23:17;;;;;;;;;;;;;;;;;;5010992;28;20486;-51
2020/12/07 14:41:32;;;;;;;;;;;;;;;;;;5011378;28;19909;-50
2020/12/07 14:43:57;;;;;;;;;;;;;;;;;;5013364;28;20036;-51
2020/12/07 14:46:26;;;;;;;;;;;;;;;;;;5030870;28;19959;-51
2020/12/07 14:48:51;;;;;;;;;;;;;;;;;;5030812;28;19909;-52
2020/12/07 14:54:02;;;;;;;;;;;;;;;;;;5030391;28;19916;-51
2020/12/07 14:56:37;;;;;;;;;;;;;;;;;;5030907;28;19915;-51
2020/12/07 15:06:56;;;;;;;;;;;;;;;;;;5030794;28;19909;-52
2020/12/07 15:14:14;;;;;;;;;;;;;;;;;;5028027;28;19909;-50
2020/12/07 15:16:40;;;;;;;;;;;;;;;;;;5030493;28;19917;-51
2020/12/07 15:19:05;;;;;;;;;;;;;;;;;;5032968;28;19913;-51
2020/12/07 15:21:30;;;;;;;;;;;;;;;;;;5034019;28;20362;-50
2020/12/07 15:23:55;;;;;;;;;;;;;;;;;;5034026;28;19915;-51
2020/12/07 15:26:20;;;;;;;;;;;;;;;;;;5034179;28;19909;-52
2020/12/07 15:28:46;;;;;;;;;;;;;;;;;;5034321;28;19913;-51
2020/12/07 15:31:11;;;;;;;;;;;;;;;;;;5034112;28;19945;-50
2020/12/07 15:33:37;;;;;;;;;;;;;;;;;;5033847;28;19951;-51
2020/12/07 15:36:05;;;;;;;;;;;;;;;;;;5034276;28;19909;-50
2020/12/07 15:38:30;;;;;;;;;;;;;;;;;;5034084;28;19966;-50
2020/12/07 15:40:55;;;;;;;;;;;;;;;;;;5033919;28;19909;-50
2020/12/07 15:43:20;;;;;;;;;;;;;;;;;;5033551;28;19909;-52
2020/12/07 15:45:46;;;;;;;;;;;;;;;;;;5016541;28;20614;-51
2020/12/07 15:48:13;;;;;;;;;;;;;;;;;;5014130;28;19917;-52
2020/12/07 15:50:38;;;;;;;;;;;;;;;;;;5013761;28;19936;-50
2020/12/07 15:53:03;;;;;;;;;;;;;;;;;;5013678;28;19909;-52
2020/12/07 15:55:28;;;;;;;;;;;;;;;;;;5014214;28;19910;-51
2020/12/07 15:57:53;;;;;;;;;;;;;;;;;;4996124;28;19917;-51
2020/12/07 16:00:19;;;;;;;;;;;;;;;;;;5013780;28;19913;-50
2020/12/07 16:02:44;;;;;;;;;;;;;;;;;;5013260;28;19987;-51
2020/12/07 16:05:09;;;;;;;;;;;;;;;;;;5014051;28;19917;-51
2020/12/07 16:07:34;;;;;;;;;;;;;;;;;;5013662;28;19913;-51
2020/12/07 16:09:59;;;;;;;;;;;;;;;;;;4996026;28;20000;-50
2020/12/07 16:12:25;;;;;;;;;;;;;;;;;;5013417;28;20397;-51
2020/12/07 16:14:50;;;;;;;;;;;;;;;;;;5013271;28;20263;-51
2020/12/07 16:17:15;;;;;;;;;;;;;;;;;;5013558;28;19916;-50
2020/12/07 16:19:40;;;;;;;;;;;;;;;;;;4995828;28;19913;-50
2020/12/07 16:22:05;;;;;;;;;;;;;;;;;;5013737;28;19921;-50
2020/12/07 16:24:30;;;;;;;;;;;;;;;;;;5013480;28;19909;-50
2020/12/07 16:26:55;;;;;;;;;;;;;;;;;;5013138;28;19909;-51
2020/12/07 16:29:21;;;;;;;;;;;;;;;;;;5013022;28;19916;-51
2020/12/07 16:31:46;;;;;;;;;;;;;;;;;;5013415;28;19909;-52
2020/12/07 16:34:11;;;;;;;;;;;;;;;;;;5012869;28;20378;-47
2020/12/07 16:36:36;;;;;;;;;;;;;;;;;;5012036;28;19917;-48
2020/12/07 16:39:01;;;;;;;;;;;;;;;;;;5032170;28;20374;-49
2020/12/07 16:41:26;;;;;;;;;;;;;;;;;;5032738;28;20416;-48
2020/12/07 16:43:51;;;;;;;;;;;;;;;;;;5032136;28;19909;-47
2020/12/07 16:46:16;;;;;;;;;;;;;;;;;;5032589;28;19909;-43
2020/12/07 16:48:42;;;;;;;;;;;;;;;;;;5032887;28;20046;-48
2020/12/07 16:51:07;;;;;;;;;;;;;;;;;;5031608;28;19996;-47
2020/12/07 16:53:32;;;;;;;;;;;;;;;;;;5032027;28;19988;-39
2020/12/07 16:55:57;;;;;;;;;;;;;;;;;;5032589;28;20000;-45
2020/12/07 16:58:22;;;;;;;;;;;;;;;;;;5032383;28;19955;-45
2020/12/07 17:00:47;;;;;;;;;;;;;;;;;;5031375;28;19959;-43
2020/12/07 17:03:12;;;;;;;;;;;;;;;;;;5013374;28;19957;-49
2020/12/07 17:05:37;;;;;;;;;;;;;;;;;;5013212;28;19979;-46
2020/12/07 17:08:02;;;;;;;;;;;;;;;;;;5013501;28;19976;-44
2020/12/07 17:10:28;;;;;;;;;;;;;;;;;;5013431;28;19909;-46
2020/12/07 17:12:53;;;;;;;;;;;;;;;;;;5012751;28;19913;-47
2020/12/07 17:15:18;;;;;;;;;;;;;;;;;;5013250;28;19913;-45
2020/12/07 17:17:43;;;;;;;;;;;;;;;;;;5013029;28;19916;-44
2020/12/07 17:20:08;;;;;;;;;;;;;;;;;;5012870;28;19914;-45
2020/12/07 17:22:33;;;;;;;;;;;;;;;;;;5012886;28;19985;-45
2020/12/07 17:24:59;;;;;;;;;;;;;;;;;;5013362;28;19909;-44
2020/12/07 17:27:24;;;;;;;;;;;;;;;;;;5012783;28;19909;-45
2020/12/07 17:29:49;;;;;;;;;;;;;;;;;;5017788;28;19910;-50
2020/12/07 17:32:14;;;;;;;;;;;;;;;;;;5032663;28;19909;-40
2020/12/07 17:34:39;;;;;;;;;;;;;;;;;;5032516;28;19971;-47